createdAt,value
2023-04-04T00:00:53.953Z,3.10
2023-04-04T00:03:22.137Z,3.03
2023-04-04T00:05:51.676Z,3.22
2023-04-04T00:08:19.777Z,2.67
2023-04-04T00:10:47.824Z,2.75
2023-04-04T00:13:17.327Z,2.72
2023-04-04T00:15:45.412Z,3.10
2023-04-04T00:18:13.494Z,2.63
2023-04-04T00:20:42.018Z,2.55
2023-04-04T00:23:11.110Z,3.15
2023-04-04T00:25:39.521Z,2.80
2023-04-04T00:28:07.487Z,3.03
2023-04-04T00:30:37.376Z,2.75
2023-04-04T00:33:06.507Z,2.53
2023-04-04T00:35:34.752Z,3.25
2023-04-04T00:38:02.745Z,2.70
2023-04-04T00:40:30.749Z,2.85
2023-04-04T00:43:00.453Z,2.88
2023-04-04T00:45:28.619Z,3.10
2023-04-04T00:47:59.668Z,3.03
2023-04-04T00:50:27.700Z,3.03
2023-04-04T00:52:56.212Z,2.97
2023-04-04T00:55:24.473Z,3.22
2023-04-04T00:57:52.881Z,3.00
2023-04-04T01:00:21.199Z,2.90
2023-04-04T01:02:49.292Z,2.92
2023-04-04T01:05:18.838Z,3.30
2023-04-04T01:07:46.868Z,3.00
2023-04-04T01:10:14.898Z,2.97
2023-04-04T01:12:43.424Z,3.15
2023-04-04T01:15:12.333Z,3.20
2023-04-04T01:17:41.900Z,2.60
2023-04-04T01:20:14.449Z,3.22
2023-04-04T01:22:45.692Z,3.25
2023-04-04T01:25:15.406Z,3.00
2023-04-04T01:27:44.764Z,3.00
2023-04-04T01:30:14.036Z,3.15
2023-04-04T01:32:45.801Z,3.17
2023-04-04T01:35:23.291Z,3.42
2023-04-04T01:37:58.623Z,3.38
2023-04-04T01:40:29.702Z,3.15
2023-04-04T01:42:59.295Z,3.38
2023-04-04T01:45:27.521Z,3.42
2023-04-04T01:47:56.737Z,3.33
2023-04-04T01:50:25.098Z,3.38
2023-04-04T01:52:53.081Z,3.60
2023-04-04T01:55:21.845Z,3.70
2023-04-04T01:57:49.818Z,3.97
2023-04-04T02:00:19.598Z,3.92
2023-04-04T02:02:47.603Z,4.85
2023-04-04T02:05:15.725Z,4.18
2023-04-04T02:07:47.847Z,4.53
2023-04-04T02:10:16.071Z,4.57
2023-04-04T02:12:44.388Z,5.00
2023-04-04T02:15:12.413Z,5.10
2023-04-04T02:17:43.082Z,5.32
2023-04-04T02:20:11.798Z,5.47
2023-04-04T02:22:39.814Z,5.47
2023-04-04T02:25:08.200Z,5.15
2023-04-04T02:27:36.212Z,5.40
2023-04-04T02:30:04.366Z,5.57
2023-04-04T02:32:32.341Z,5.90
2023-04-04T02:35:01.712Z,4.80
2023-04-04T02:37:29.658Z,5.28
2023-04-04T02:39:57.633Z,5.30
2023-04-04T02:42:25.735Z,5.10
2023-04-04T02:44:53.776Z,4.28
2023-04-04T02:47:21.748Z,4.82
2023-04-04T02:49:49.775Z,4.85
2023-04-04T02:52:19.183Z,4.97
2023-04-04T02:54:47.179Z,4.72
2023-04-04T02:57:15.203Z,4.43
2023-04-04T02:59:43.176Z,4.35
2023-04-04T03:02:11.308Z,4.00
2023-04-04T03:04:39.384Z,4.18
2023-04-04T03:07:07.364Z,4.85
2023-04-04T03:09:36.800Z,4.78
2023-04-04T03:12:05.667Z,5.03
2023-04-04T03:14:33.823Z,4.68
2023-04-04T03:17:02.350Z,5.25
2023-04-04T03:19:30.525Z,5.50
2023-04-04T03:21:58.665Z,5.05
2023-04-04T03:24:26.621Z,4.47
2023-04-04T03:26:55.958Z,5.00
2023-04-04T03:29:24.138Z,4.70
2023-04-04T03:31:52.129Z,4.50
2023-04-04T03:34:20.592Z,4.82
2023-04-04T03:36:48.593Z,4.90
2023-04-04T03:39:17.108Z,4.72
2023-04-04T03:41:45.085Z,4.50
2023-04-04T03:44:14.554Z,4.57
2023-04-04T03:46:42.551Z,4.45
2023-04-04T03:49:10.586Z,4.80
2023-04-04T03:51:38.575Z,4.43
2023-04-04T03:54:06.904Z,4.38
2023-04-04T03:56:34.948Z,5.10
2023-04-04T03:59:03.231Z,4.88
2023-04-04T04:01:32.613Z,5.10
2023-04-04T04:04:01.364Z,5.60
2023-04-04T04:06:29.518Z,6.07
2023-04-04T04:08:58.292Z,5.43
2023-04-04T04:11:26.308Z,5.78
2023-04-04T04:13:54.323Z,5.57
2023-04-04T04:16:22.965Z,5.50
2023-04-04T04:18:52.609Z,5.53
2023-04-04T04:21:20.697Z,5.82
2023-04-04T04:23:48.750Z,4.97
2023-04-04T04:26:16.766Z,5.22
2023-04-04T04:28:44.764Z,4.97
2023-04-04T04:31:12.805Z,4.50
2023-04-04T04:33:41.276Z,4.50
2023-04-04T04:36:10.961Z,5.07
2023-04-04T04:38:38.928Z,4.20
2023-04-04T04:41:06.990Z,4.35
2023-04-04T04:43:36.914Z,5.05
2023-04-04T04:46:04.906Z,4.82
2023-04-04T04:48:32.974Z,4.82
2023-04-04T04:51:01.051Z,4.32
2023-04-04T04:53:30.561Z,4.68
2023-04-04T04:55:58.615Z,4.38
2023-04-04T04:58:27.628Z,4.80
2023-04-04T05:00:57.968Z,4.82
2023-04-04T05:03:26.363Z,4.63
2023-04-04T05:05:54.346Z,5.15
2023-04-04T05:08:22.475Z,5.50
2023-04-04T05:10:53.168Z,5.47
2023-04-04T05:13:21.159Z,5.53
2023-04-04T05:15:49.124Z,5.47
2023-04-04T05:18:17.077Z,6.03
2023-04-04T05:20:45.011Z,5.88
2023-04-04T05:23:13.053Z,6.18
2023-04-04T05:25:41.015Z,5.82
2023-04-04T05:28:10.339Z,5.82
2023-04-04T05:30:39.304Z,5.80
2023-04-04T05:33:07.500Z,5.53
2023-04-04T05:35:35.526Z,5.47
2023-04-04T05:38:04.268Z,5.63
2023-04-04T05:40:32.182Z,5.10
2023-04-04T05:43:02.153Z,5.32
2023-04-04T05:45:31.709Z,5.50
2023-04-04T05:47:59.850Z,4.85
2023-04-04T05:50:27.863Z,5.15
2023-04-04T05:52:57.112Z,5.55
2023-04-04T05:55:25.317Z,5.50
2023-04-04T05:57:53.665Z,5.65
2023-04-04T06:00:21.843Z,6.03
2023-04-04T06:02:52.910Z,5.78
2023-04-04T06:05:21.114Z,5.38
2023-04-04T06:07:49.071Z,5.75
2023-04-04T06:10:17.061Z,6.70
2023-04-04T06:12:44.969Z,7.15
2023-04-04T06:15:12.862Z,7.40
2023-04-04T06:17:41.503Z,8.20
2023-04-04T06:20:12.207Z,8.07
2023-04-04T06:22:40.187Z,7.25
2023-04-04T06:25:10.410Z,7.05
2023-04-04T06:27:38.441Z,5.55
2023-04-04T06:30:09.031Z,6.07
2023-04-04T06:32:38.848Z,7.25
2023-04-04T06:35:08.040Z,6.38
2023-04-04T06:37:37.270Z,6.50
2023-04-04T06:40:05.766Z,6.35
2023-04-04T06:42:34.034Z,5.82
2023-04-04T06:45:01.980Z,5.45
2023-04-04T06:47:30.311Z,5.55
2023-04-04T06:49:58.279Z,5.53
2023-04-04T06:52:26.692Z,5.25
2023-04-04T06:54:56.935Z,5.70
2023-04-04T06:57:24.844Z,5.72
2023-04-04T06:59:52.840Z,5.70
2023-04-04T07:02:20.797Z,5.25
2023-04-04T07:04:48.810Z,4.93
2023-04-04T07:07:16.841Z,6.05
2023-04-04T07:09:44.834Z,5.38
2023-04-04T07:12:14.162Z,5.85
2023-04-04T07:14:42.726Z,5.75
2023-04-04T07:17:23.607Z,5.25
2023-04-04T07:19:53.011Z,5.20
2023-04-04T07:22:21.056Z,4.97
2023-04-04T07:24:49.492Z,5.00
2023-04-04T07:27:18.876Z,5.20
2023-04-04T07:29:46.818Z,5.00
2023-04-04T07:32:15.125Z,4.72
2023-04-04T07:34:43.113Z,4.43
2023-04-04T07:37:11.068Z,4.30
2023-04-04T07:39:39.011Z,5.32
2023-04-04T07:42:07.882Z,4.55
2023-04-04T07:44:37.282Z,4.70
2023-04-04T07:47:10.089Z,5.20
2023-04-04T07:49:38.634Z,4.60
2023-04-04T07:52:06.713Z,4.57
2023-04-04T07:54:34.735Z,4.55
2023-04-04T07:57:05.459Z,4.35
2023-04-04T07:59:33.543Z,4.55
2023-04-04T08:02:02.880Z,3.97
2023-04-04T08:04:31.014Z,4.30
2023-04-04T08:06:59.031Z,4.30
2023-04-04T08:09:31.266Z,3.92
2023-04-04T08:14:27.179Z,3.53
2023-04-04T08:16:55.157Z,3.60
2023-04-04T08:19:24.579Z,3.38
2023-04-04T08:21:52.632Z,3.97
2023-04-04T08:24:22.321Z,2.95
2023-04-04T08:26:58.232Z,3.35
2023-04-04T08:29:33.068Z,3.72
2023-04-04T08:32:01.623Z,3.40
2023-04-04T08:34:31.064Z,3.42
2023-04-04T08:37:00.069Z,3.45
2023-04-04T08:39:28.236Z,3.13
2023-04-04T08:42:05.274Z,2.75
2023-04-04T08:44:34.734Z,3.33
2023-04-04T08:47:05.382Z,3.08
2023-04-04T08:49:38.971Z,2.83
2023-04-04T08:52:07.902Z,3.10
2023-04-04T08:54:36.620Z,3.03
2023-04-04T08:57:04.635Z,3.20
2023-04-04T08:59:32.926Z,2.67
2023-04-04T09:02:15.762Z,2.70
2023-04-04T09:04:58.239Z,2.72
2023-04-04T09:07:32.279Z,3.22
2023-04-04T09:10:01.302Z,3.05
2023-04-04T09:12:32.395Z,2.97
2023-04-04T09:15:01.734Z,2.67
2023-04-04T09:17:29.806Z,3.03
2023-04-04T09:20:04.475Z,3.30
2023-04-04T09:22:32.729Z,2.92
2023-04-04T09:25:00.778Z,2.88
2023-04-04T09:27:28.693Z,3.20
2023-04-04T09:30:05.635Z,3.13
2023-04-04T09:32:34.834Z,2.97
2023-04-04T09:35:04.369Z,3.40
2023-04-04T09:37:32.444Z,2.80
2023-04-04T09:40:00.790Z,3.38
2023-04-04T09:42:29.252Z,3.25
2023-04-04T09:44:57.610Z,3.60
2023-04-04T09:49:59.351Z,3.85
2023-04-04T09:52:28.826Z,3.55
2023-04-04T09:54:58.568Z,3.22
2023-04-04T09:57:29.194Z,3.15
2023-04-04T10:00:01.530Z,3.50
2023-04-04T10:07:33.575Z,3.55
2023-04-04T10:10:03.855Z,3.50
2023-04-04T10:12:33.076Z,3.22
2023-04-04T10:15:02.323Z,3.35
2023-04-04T10:17:32.855Z,3.38
2023-04-04T10:20:04.919Z,2.90
2023-04-04T10:22:34.753Z,3.03
2023-04-04T10:25:03.135Z,3.00
2023-04-04T10:27:31.400Z,6.68
2023-04-04T10:30:00.666Z,3.05
2023-04-04T10:32:35.019Z,3.80
2023-04-04T10:35:06.310Z,28.10
2023-04-04T10:37:41.850Z,3.15
2023-04-04T10:40:11.799Z,4.93
2023-04-04T10:42:42.241Z,3.05
2023-04-04T10:45:20.542Z,3.25
2023-04-04T10:47:50.444Z,4.25
2023-04-04T10:50:18.695Z,3.38
2023-04-04T10:52:48.551Z,3.90
2023-04-04T10:55:17.682Z,3.75
2023-04-04T10:57:50.857Z,3.67
2023-04-04T11:00:20.279Z,3.60
2023-04-04T11:02:51.258Z,3.33
2023-04-04T11:05:22.996Z,3.30
2023-04-04T11:08:07.613Z,3.60
2023-04-04T11:10:37.791Z,3.53
2023-04-04T11:13:14.047Z,3.40
2023-04-04T11:15:55.660Z,3.63
2023-04-04T11:18:33.267Z,3.53
2023-04-04T11:21:03.685Z,3.50
2023-04-04T11:24:00.879Z,3.50
2023-04-04T11:26:36.914Z,3.35
2023-04-04T11:29:08.060Z,3.53
2023-04-04T11:31:40.484Z,3.28
2023-04-04T11:34:09.829Z,3.58
2023-04-04T11:36:53.709Z,3.22
2023-04-04T11:39:30.992Z,4.10
2023-04-04T11:42:04.585Z,3.90
2023-04-04T11:44:35.510Z,4.20
2023-04-04T11:47:10.702Z,4.00
2023-04-04T11:49:40.824Z,3.80
2023-04-04T11:52:10.739Z,4.20
2023-04-04T11:54:41.546Z,4.22
2023-04-04T11:57:12.144Z,3.70
2023-04-04T11:59:41.783Z,3.85
2023-04-04T12:02:10.893Z,3.47
2023-04-04T12:04:42.851Z,3.58
2023-04-04T12:07:12.581Z,3.92
2023-04-04T12:09:42.420Z,3.83
2023-04-04T12:12:14.376Z,4.10
2023-04-04T12:14:43.027Z,5.20
2023-04-04T12:17:11.124Z,4.50
2023-04-04T12:19:40.466Z,4.28
2023-04-04T12:22:09.109Z,4.20
2023-04-04T12:24:37.856Z,3.83
2023-04-04T12:27:07.811Z,4.22
2023-04-04T12:29:38.125Z,4.20
2023-04-04T12:32:07.599Z,3.90
2023-04-04T12:34:45.558Z,4.28
2023-04-04T12:37:19.127Z,4.30
2023-04-04T12:39:49.573Z,4.00
2023-04-04T12:42:24.473Z,4.60
2023-04-04T12:44:53.885Z,4.07
2023-04-04T12:47:24.326Z,4.03
2023-04-04T12:49:55.258Z,4.22
2023-04-04T12:52:27.704Z,4.25
2023-04-04T12:57:39.899Z,4.60
2023-04-04T13:00:09.678Z,3.63
2023-04-04T13:02:39.096Z,3.67
2023-04-04T13:05:08.214Z,4.05
2023-04-04T13:07:43.470Z,4.28
2023-04-04T13:10:16.816Z,4.07
2023-04-04T13:13:01.111Z,4.45
2023-04-04T13:15:52.217Z,3.90
2023-04-04T13:18:22.600Z,3.80
2023-04-04T13:20:51.412Z,4.15
2023-04-04T13:23:20.085Z,3.47
2023-04-04T13:25:48.215Z,3.30
2023-04-04T13:28:17.854Z,3.90
2023-04-04T13:30:49.449Z,3.80
2023-04-04T13:33:18.294Z,4.10
2023-04-04T13:35:47.428Z,4.03
2023-04-04T13:38:15.567Z,4.22
2023-04-04T13:40:43.667Z,4.13
2023-04-04T13:43:12.978Z,4.50
2023-04-04T13:45:44.139Z,4.05
2023-04-04T13:48:13.247Z,4.80
2023-04-04T13:50:43.622Z,4.10
2023-04-04T13:53:12.256Z,4.10
2023-04-04T13:55:52.021Z,3.85
2023-04-04T13:58:28.322Z,4.22
2023-04-04T14:00:57.959Z,3.67
2023-04-04T14:03:26.126Z,3.60
2023-04-04T14:05:54.142Z,3.47
2023-04-04T14:08:22.159Z,3.25
2023-04-04T14:10:50.176Z,4.13
2023-04-04T14:13:18.196Z,3.55
2023-04-04T14:15:46.514Z,3.70
2023-04-04T14:18:16.274Z,3.92
2023-04-04T14:20:44.419Z,3.53
2023-04-04T14:23:12.605Z,3.55
2023-04-04T14:25:40.856Z,3.55
2023-04-04T14:28:09.025Z,3.80
2023-04-04T14:30:37.023Z,3.80
2023-04-04T14:33:05.292Z,3.88
2023-04-04T14:35:34.822Z,3.42
2023-04-04T14:38:02.791Z,3.30
2023-04-04T14:40:31.575Z,3.92
2023-04-04T14:42:59.594Z,4.03
2023-04-04T14:45:28.565Z,3.97
2023-04-04T14:47:56.684Z,4.07
2023-04-04T14:50:24.713Z,3.53
2023-04-04T14:52:56.341Z,3.33
2023-04-04T14:55:25.203Z,3.88
2023-04-04T15:00:25.509Z,4.15
2023-04-04T15:02:53.833Z,4.03
2023-04-04T15:05:21.963Z,3.72
2023-04-04T15:07:51.298Z,3.90
2023-04-04T15:10:21.131Z,3.80
2023-04-04T15:12:49.120Z,3.88
2023-04-04T15:15:17.347Z,3.72
2023-04-04T15:17:46.063Z,5.00
2023-04-04T15:20:14.187Z,3.92
2023-04-04T15:22:42.404Z,3.65
2023-04-04T15:25:11.027Z,4.90
2023-04-04T15:27:40.861Z,4.90
2023-04-04T15:30:10.259Z,4.18
2023-04-04T15:32:38.391Z,4.00
2023-04-04T15:35:07.513Z,4.38
2023-04-04T15:37:36.092Z,4.40
2023-04-04T15:40:04.352Z,4.35
2023-04-04T15:42:32.592Z,4.53
2023-04-04T15:45:02.241Z,5.38
2023-04-04T15:47:30.534Z,4.25
2023-04-04T15:49:58.579Z,3.97
2023-04-04T15:52:27.102Z,4.43
2023-04-04T15:54:55.196Z,4.10
2023-04-04T15:57:25.769Z,4.30
2023-04-04T15:59:54.113Z,4.65
2023-04-04T16:02:23.844Z,4.47
2023-04-04T16:04:52.101Z,4.68
2023-04-04T16:07:20.503Z,4.30
2023-04-04T16:09:48.581Z,4.68
2023-04-04T16:12:16.792Z,4.13
2023-04-04T16:14:44.985Z,4.43
2023-04-04T16:17:13.100Z,4.90
2023-04-04T16:19:42.833Z,5.13
2023-04-04T16:22:13.641Z,4.60
2023-04-04T16:24:41.829Z,5.30
2023-04-04T16:27:10.203Z,4.85
2023-04-04T16:29:38.383Z,4.82
2023-04-04T16:32:08.217Z,5.20
2023-04-04T16:34:38.752Z,4.63
2023-04-04T16:37:09.791Z,5.13
2023-04-04T16:39:37.845Z,5.13
2023-04-04T16:42:05.831Z,4.70
2023-04-04T16:44:33.831Z,5.18
2023-04-04T16:47:01.878Z,4.43
2023-04-04T16:49:29.978Z,5.97
2023-04-04T16:51:58.052Z,5.45
2023-04-04T16:54:27.438Z,5.15
2023-04-04T16:56:56.273Z,5.53
2023-04-04T16:59:24.484Z,5.25
2023-04-04T17:01:52.635Z,5.30
2023-04-04T17:04:20.915Z,4.85
2023-04-04T17:06:49.084Z,5.32
2023-04-04T17:09:17.076Z,5.28
2023-04-04T17:11:47.049Z,5.55
2023-04-04T17:14:15.503Z,5.22
2023-04-04T17:16:44.182Z,5.65
2023-04-04T17:19:12.479Z,5.47
2023-04-04T17:21:40.705Z,5.32
2023-04-04T17:24:08.822Z,5.55
2023-04-04T17:26:37.071Z,5.25
2023-04-04T17:29:06.822Z,5.40
2023-04-04T17:31:35.585Z,5.32
2023-04-04T17:34:03.715Z,5.72
2023-04-04T17:36:32.963Z,5.22
2023-04-04T17:39:01.167Z,5.75
2023-04-04T17:41:29.484Z,5.70
2023-04-04T17:43:57.504Z,6.13
2023-04-04T17:46:26.942Z,5.55
2023-04-04T17:48:55.515Z,5.82
2023-04-04T17:51:23.556Z,5.80
2023-04-04T17:53:51.696Z,6.45
2023-04-04T17:56:19.897Z,6.07
2023-04-04T17:58:48.140Z,6.45
2023-04-04T18:01:16.243Z,6.18
2023-04-04T18:03:45.690Z,6.70
2023-04-04T18:06:14.033Z,6.63
2023-04-04T18:08:42.683Z,6.80
2023-04-04T18:11:11.047Z,6.80
2023-04-04T18:13:39.558Z,6.80
2023-04-04T18:16:07.797Z,7.07
2023-04-04T18:18:37.409Z,6.57
2023-04-04T18:21:07.382Z,6.97
2023-04-04T18:23:35.729Z,7.03
2023-04-04T18:26:04.080Z,6.43
2023-04-04T18:28:32.495Z,6.70
2023-04-04T18:31:00.453Z,6.68
2023-04-04T18:33:28.511Z,7.03
2023-04-04T18:35:56.539Z,7.03
2023-04-04T18:38:27.927Z,6.93
2023-04-04T18:40:57.070Z,6.78
2023-04-04T18:43:26.079Z,6.72
2023-04-04T18:45:55.122Z,7.10
2023-04-04T18:48:25.109Z,6.53
2023-04-04T18:50:53.332Z,7.38
2023-04-04T18:53:23.059Z,7.60
2023-04-04T18:55:53.208Z,7.55
2023-04-04T18:58:21.230Z,7.15
2023-04-04T19:00:52.425Z,7.50
2023-04-04T19:03:20.920Z,7.25
2023-04-04T19:05:50.072Z,7.00
2023-04-04T19:08:18.732Z,7.70
2023-04-04T19:10:47.973Z,7.47
2023-04-04T19:13:17.840Z,7.20
2023-04-04T19:15:46.857Z,7.70
2023-04-04T19:18:15.481Z,7.93
2023-04-04T19:20:43.680Z,8.45
2023-04-04T19:23:12.347Z,8.40
2023-04-04T19:25:40.678Z,8.45
2023-04-04T19:28:08.732Z,8.88
2023-04-04T19:30:43.251Z,8.45
2023-04-04T19:33:12.250Z,8.38
2023-04-04T19:35:53.087Z,8.13
2023-04-04T19:38:26.598Z,8.88
2023-04-04T19:40:57.676Z,8.85
2023-04-04T19:43:27.392Z,9.52
2023-04-04T19:46:07.870Z,9.23
2023-04-04T19:48:44.380Z,10.65
2023-04-04T19:51:28.512Z,9.63
2023-04-04T19:53:58.416Z,10.55
2023-04-04T19:56:28.056Z,10.30
2023-04-04T19:58:57.937Z,9.57
2023-04-04T20:01:29.040Z,10.30
2023-04-04T20:03:57.570Z,9.90
2023-04-04T20:06:27.627Z,10.73
2023-04-04T20:08:57.707Z,10.93
2023-04-04T20:11:29.849Z,10.57
2023-04-04T20:13:58.581Z,10.38
2023-04-04T20:16:28.227Z,10.40
2023-04-04T20:18:56.230Z,10.48
2023-04-04T20:21:27.054Z,10.93
2023-04-04T20:23:57.670Z,10.55
2023-04-04T20:26:43.689Z,10.65
2023-04-04T20:29:13.114Z,11.10
2023-04-04T20:31:44.888Z,10.98
2023-04-04T20:34:39.171Z,11.30
2023-04-04T20:37:11.665Z,11.30
2023-04-04T20:42:33.993Z,10.50
2023-04-04T20:47:57.059Z,10.43
2023-04-04T20:50:44.912Z,11.35
2023-04-04T20:53:19.058Z,11.80
2023-04-04T20:55:47.144Z,11.90
2023-04-04T20:58:28.966Z,11.77
2023-04-04T21:00:58.746Z,11.90
2023-04-04T21:03:36.808Z,11.63
2023-04-04T21:06:12.613Z,11.98
2023-04-04T21:08:44.473Z,12.50
2023-04-04T21:11:13.638Z,13.07
2023-04-04T21:13:43.019Z,12.15
2023-04-04T21:16:13.247Z,12.32
2023-04-04T21:18:42.585Z,13.20
2023-04-04T21:21:16.975Z,13.15
2023-04-04T21:23:52.647Z,12.55
2023-04-04T21:26:27.224Z,13.13
2023-04-04T21:28:55.500Z,13.15
2023-04-04T21:31:26.356Z,12.55
2023-04-04T21:33:58.098Z,12.60
2023-04-04T21:36:31.162Z,13.88
2023-04-04T21:39:00.955Z,12.57
2023-04-04T21:41:30.337Z,13.90
2023-04-04T21:44:00.311Z,13.15
2023-04-04T21:46:29.891Z,13.32
2023-04-04T21:48:59.307Z,13.23
2023-04-04T21:51:27.555Z,12.70
2023-04-04T21:53:56.124Z,13.25
2023-04-04T21:56:27.327Z,13.23
2023-04-04T21:58:55.782Z,12.98
2023-04-04T22:01:23.835Z,12.30
2023-04-04T22:03:51.793Z,12.95
2023-04-04T22:06:23.314Z,13.02
2023-04-04T22:08:51.427Z,13.13
2023-04-04T22:11:20.077Z,13.70
2023-04-04T22:13:48.989Z,13.57
2023-04-04T22:16:18.417Z,13.07
2023-04-04T22:18:47.792Z,13.48
2023-04-04T22:21:17.113Z,13.52
2023-04-04T22:23:46.417Z,13.02
2023-04-04T22:26:20.283Z,13.40
2023-04-04T22:28:48.261Z,14.93
2023-04-04T22:31:16.692Z,13.50
2023-04-04T22:33:44.668Z,13.45
2023-04-04T22:36:12.710Z,13.07
2023-04-04T22:38:40.700Z,13.50
2023-04-04T22:41:10.069Z,13.68
2023-04-04T22:43:38.028Z,12.73
2023-04-04T22:46:06.156Z,13.45
2023-04-04T22:48:41.341Z,13.45
2023-04-04T22:51:09.475Z,12.93
2023-04-04T22:53:37.433Z,13.00
2023-04-04T22:56:05.521Z,12.15
2023-04-04T22:58:34.806Z,13.00
2023-04-04T23:01:02.831Z,12.82
2023-04-04T23:03:31.188Z,13.13
2023-04-04T23:05:59.115Z,12.88
2023-04-04T23:08:27.084Z,12.68
2023-04-04T23:10:55.084Z,13.25
2023-04-04T23:13:23.334Z,14.25
2023-04-04T23:15:52.720Z,13.85
2023-04-04T23:18:21.945Z,13.68
2023-04-04T23:20:49.943Z,13.63
2023-04-04T23:23:17.912Z,14.45
2023-04-04T23:25:45.924Z,14.23
2023-04-04T23:28:13.900Z,14.02
2023-04-04T23:30:42.391Z,13.43
2023-04-04T23:33:11.973Z,13.43
2023-04-04T23:35:40.070Z,13.70
2023-04-04T23:38:13.208Z,13.40
2023-04-04T23:40:41.599Z,13.05
2023-04-04T23:43:09.805Z,13.02
2023-04-04T23:45:40.797Z,13.18
2023-04-04T23:48:08.860Z,13.50
2023-04-04T23:50:38.296Z,13.25
2023-04-04T23:53:06.365Z,12.45
2023-04-04T23:55:34.374Z,13.15
2023-04-04T23:58:03.285Z,13.63
